sensor_id;sensor_type;location;lat;lon;timestamp;temperature;humidity
1107;DHT22;540;49.448;8.612;2023-04-26T00:01:42;8.80;92.80
1107;DHT22;540;49.448;8.612;2023-04-26T00:04:10;9.10;93.40
1107;DHT22;540;49.448;8.612;2023-04-26T00:06:39;8.90;93.50
1107;DHT22;540;49.448;8.612;2023-04-26T00:09:07;8.90;92.40
1107;DHT22;540;49.448;8.612;2023-04-26T00:11:35;8.80;92.20
1107;DHT22;540;49.448;8.612;2023-04-26T00:14:03;8.80;92.10
1107;DHT22;540;49.448;8.612;2023-04-26T00:16:31;8.70;91.80
1107;DHT22;540;49.448;8.612;2023-04-26T00:18:58;8.90;91.40
1107;DHT22;540;49.448;8.612;2023-04-26T00:21:26;8.80;91.30
1107;DHT22;540;49.448;8.612;2023-04-26T00:23:56;8.70;91.10
1107;DHT22;540;49.448;8.612;2023-04-26T00:26:24;8.80;91.30
1107;DHT22;540;49.448;8.612;2023-04-26T00:28:51;8.70;91.50
1107;DHT22;540;49.448;8.612;2023-04-26T00:31:20;9.00;92.10
1107;DHT22;540;49.448;8.612;2023-04-26T00:33:48;8.20;93.20
1107;DHT22;540;49.448;8.612;2023-04-26T00:36:16;8.70;92.70
1107;DHT22;540;49.448;8.612;2023-04-26T00:38:45;8.60;93.10
1107;DHT22;540;49.448;8.612;2023-04-26T00:41:14;8.60;93.10
1107;DHT22;540;49.448;8.612;2023-04-26T00:43:42;8.40;93.50
1107;DHT22;540;49.448;8.612;2023-04-26T00:46:10;8.40;93.80
1107;DHT22;540;49.448;8.612;2023-04-26T00:48:38;8.80;94.70
1107;DHT22;540;49.448;8.612;2023-04-26T00:51:06;8.30;95.40
1107;DHT22;540;49.448;8.612;2023-04-26T00:53:35;8.30;96.00
1107;DHT22;540;49.448;8.612;2023-04-26T00:56:06;8.50;96.30
1107;DHT22;540;49.448;8.612;2023-04-26T00:58:37;8.20;96.80
1107;DHT22;540;49.448;8.612;2023-04-26T01:01:05;8.20;96.80
1107;DHT22;540;49.448;8.612;2023-04-26T01:03:34;8.30;97.00
1107;DHT22;540;49.448;8.612;2023-04-26T01:06:02;8.10;97.20
1107;DHT22;540;49.448;8.612;2023-04-26T01:08:30;7.90;97.50
1107;DHT22;540;49.448;8.612;2023-04-26T01:10:58;8.10;96.80
1107;DHT22;540;49.448;8.612;2023-04-26T01:13:26;7.80;97.30
1107;DHT22;540;49.448;8.612;2023-04-26T01:15:56;7.90;97.50
1107;DHT22;540;49.448;8.612;2023-04-26T01:18:25;7.80;97.70
1107;DHT22;540;49.448;8.612;2023-04-26T01:20:54;7.90;96.20
1107;DHT22;540;49.448;8.612;2023-04-26T01:23:23;7.70;97.00
1107;DHT22;540;49.448;8.612;2023-04-26T01:25:52;7.70;96.60
1107;DHT22;540;49.448;8.612;2023-04-26T01:28:21;6.90;95.60
1107;DHT22;540;49.448;8.612;2023-04-26T01:30:49;7.60;96.60
1107;DHT22;540;49.448;8.612;2023-04-26T01:33:17;7.50;96.60
1107;DHT22;540;49.448;8.612;2023-04-26T01:35:45;7.60;97.60
1107;DHT22;540;49.448;8.612;2023-04-26T01:38:13;7.30;97.80
1107;DHT22;540;49.448;8.612;2023-04-26T01:40:43;7.30;98.00
1107;DHT22;540;49.448;8.612;2023-04-26T01:43:11;7.40;98.30
1107;DHT22;540;49.448;8.612;2023-04-26T01:45:40;7.20;98.60
1107;DHT22;540;49.448;8.612;2023-04-26T01:48:08;7.20;99.10
1107;DHT22;540;49.448;8.612;2023-04-26T01:50:36;7.20;99.00
1107;DHT22;540;49.448;8.612;2023-04-26T01:53:04;7.10;99.10
1107;DHT22;540;49.448;8.612;2023-04-26T01:55:33;7.10;99.20
1107;DHT22;540;49.448;8.612;2023-04-26T01:58:02;7.00;99.20
1107;DHT22;540;49.448;8.612;2023-04-26T02:00:30;7.20;99.60
1107;DHT22;540;49.448;8.612;2023-04-26T02:02:58;7.30;99.10
1107;DHT22;540;49.448;8.612;2023-04-26T02:05:26;7.00;99.30
1107;DHT22;540;49.448;8.612;2023-04-26T02:07:54;7.00;99.20
1107;DHT22;540;49.448;8.612;2023-04-26T02:10:22;6.90;98.60
1107;DHT22;540;49.448;8.612;2023-04-26T02:12:50;6.90;99.00
1107;DHT22;540;49.448;8.612;2023-04-26T02:15:19;6.90;99.50
1107;DHT22;540;49.448;8.612;2023-04-26T02:17:47;6.80;99.90
1107;DHT22;540;49.448;8.612;2023-04-26T02:20:15;6.90;99.90
1107;DHT22;540;49.448;8.612;2023-04-26T02:22:43;7.10;99.80
1107;DHT22;540;49.448;8.612;2023-04-26T02:25:11;6.90;99.70
1107;DHT22;540;49.448;8.612;2023-04-26T02:27:39;6.60;99.90
1107;DHT22;540;49.448;8.612;2023-04-26T02:30:08;6.80;99.90
1107;DHT22;540;49.448;8.612;2023-04-26T02:32:37;6.60;99.90
1107;DHT22;540;49.448;8.612;2023-04-26T02:35:05;6.70;99.90
1107;DHT22;540;49.448;8.612;2023-04-26T02:37:33;6.90;99.90
1107;DHT22;540;49.448;8.612;2023-04-26T02:40:01;6.70;99.90
1107;DHT22;540;49.448;8.612;2023-04-26T02:42:29;7.10;99.90
1107;DHT22;540;49.448;8.612;2023-04-26T02:44:57;6.70;99.90
1107;DHT22;540;49.448;8.612;2023-04-26T02:47:25;6.90;99.90
1107;DHT22;540;49.448;8.612;2023-04-26T02:49:54;6.60;99.30
1107;DHT22;540;49.448;8.612;2023-04-26T02:52:22;7.00;99.90
1107;DHT22;540;49.448;8.612;2023-04-26T02:54:49;6.70;99.90
1107;DHT22;540;49.448;8.612;2023-04-26T02:57:17;6.70;99.60
1107;DHT22;540;49.448;8.612;2023-04-26T02:59:45;6.70;98.80
1107;DHT22;540;49.448;8.612;2023-04-26T03:02:13;6.70;98.10
1107;DHT22;540;49.448;8.612;2023-04-26T03:04:41;6.70;98.20
1107;DHT22;540;49.448;8.612;2023-04-26T03:07:10;6.50;97.80
1107;DHT22;540;49.448;8.612;2023-04-26T03:09:38;6.40;98.40
1107;DHT22;540;49.448;8.612;2023-04-26T03:12:06;5.80;98.90
1107;DHT22;540;49.448;8.612;2023-04-26T03:14:34;6.50;99.90
1107;DHT22;540;49.448;8.612;2023-04-26T03:17:02;6.20;99.90
1107;DHT22;540;49.448;8.612;2023-04-26T03:19:30;5.60;99.90
1107;DHT22;540;49.448;8.612;2023-04-26T03:21:58;6.30;99.90
1107;DHT22;540;49.448;8.612;2023-04-26T03:24:27;6.30;99.90
1107;DHT22;540;49.448;8.612;2023-04-26T03:26:55;6.20;99.90
1107;DHT22;540;49.448;8.612;2023-04-26T03:29:23;6.30;99.90
1107;DHT22;540;49.448;8.612;2023-04-26T03:31:51;6.30;99.90
1107;DHT22;540;49.448;8.612;2023-04-26T03:34:19;5.70;99.90
1107;DHT22;540;49.448;8.612;2023-04-26T03:36:47;6.20;99.90
1107;DHT22;540;49.448;8.612;2023-04-26T03:39:15;6.10;99.90
1107;DHT22;540;49.448;8.612;2023-04-26T03:41:44;6.20;99.90
1107;DHT22;540;49.448;8.612;2023-04-26T03:44:12;6.30;99.90
1107;DHT22;540;49.448;8.612;2023-04-26T03:46:40;6.10;99.90
1107;DHT22;540;49.448;8.612;2023-04-26T03:49:08;6.10;99.90
1107;DHT22;540;49.448;8.612;2023-04-26T03:51:36;6.10;99.90
1107;DHT22;540;49.448;8.612;2023-04-26T03:54:04;6.30;99.90
1107;DHT22;540;49.448;8.612;2023-04-26T03:56:32;6.10;99.90
1107;DHT22;540;49.448;8.612;2023-04-26T03:59:01;6.10;99.90
1107;DHT22;540;49.448;8.612;2023-04-26T04:01:29;6.20;99.90
1107;DHT22;540;49.448;8.612;2023-04-26T04:03:57;5.60;99.90
1107;DHT22;540;49.448;8.612;2023-04-26T04:06:25;5.60;99.90
1107;DHT22;540;49.448;8.612;2023-04-26T04:08:53;6.00;99.90
1107;DHT22;540;49.448;8.612;2023-04-26T04:11:21;5.60;99.90
1107;DHT22;540;49.448;8.612;2023-04-26T04:13:49;5.60;99.90
1107;DHT22;540;49.448;8.612;2023-04-26T04:16:18;5.60;99.90
1107;DHT22;540;49.448;8.612;2023-04-26T04:18:46;5.10;99.90
1107;DHT22;540;49.448;8.612;2023-04-26T04:21:13;5.60;99.90
1107;DHT22;540;49.448;8.612;2023-04-26T04:23:41;5.60;99.90
1107;DHT22;540;49.448;8.612;2023-04-26T04:26:10;5.70;99.90
1107;DHT22;540;49.448;8.612;2023-04-26T04:28:38;5.60;99.90
1107;DHT22;540;49.448;8.612;2023-04-26T04:31:07;5.40;99.90
1107;DHT22;540;49.448;8.612;2023-04-26T04:33:37;5.60;99.90
1107;DHT22;540;49.448;8.612;2023-04-26T04:36:06;5.60;99.90
1107;DHT22;540;49.448;8.612;2023-04-26T04:38:34;5.40;99.90
1107;DHT22;540;49.448;8.612;2023-04-26T04:41:02;5.60;99.90
1107;DHT22;540;49.448;8.612;2023-04-26T04:43:30;5.60;99.90
1107;DHT22;540;49.448;8.612;2023-04-26T04:45:58;5.50;99.90
1107;DHT22;540;49.448;8.612;2023-04-26T04:48:26;5.90;99.90
1107;DHT22;540;49.448;8.612;2023-04-26T04:50:55;6.00;99.90
1107;DHT22;540;49.448;8.612;2023-04-26T04:53:23;5.90;99.90
1107;DHT22;540;49.448;8.612;2023-04-26T04:55:51;5.90;99.90
1107;DHT22;540;49.448;8.612;2023-04-26T04:58:19;5.90;99.90
1107;DHT22;540;49.448;8.612;2023-04-26T05:00:48;6.00;99.90
1107;DHT22;540;49.448;8.612;2023-04-26T05:03:17;6.10;99.90
1107;DHT22;540;49.448;8.612;2023-04-26T05:05:44;6.00;99.90
1107;DHT22;540;49.448;8.612;2023-04-26T05:08:14;6.30;99.90
1107;DHT22;540;49.448;8.612;2023-04-26T05:10:42;6.10;99.90
1107;DHT22;540;49.448;8.612;2023-04-26T05:13:09;6.40;99.90
1107;DHT22;540;49.448;8.612;2023-04-26T05:15:37;6.20;99.90
1107;DHT22;540;49.448;8.612;2023-04-26T05:18:05;6.40;99.90
1107;DHT22;540;49.448;8.612;2023-04-26T05:20:33;6.20;99.90
1107;DHT22;540;49.448;8.612;2023-04-26T05:23:01;6.40;99.90
1107;DHT22;540;49.448;8.612;2023-04-26T05:25:30;6.40;99.90
1107;DHT22;540;49.448;8.612;2023-04-26T05:27:58;6.60;99.90
1107;DHT22;540;49.448;8.612;2023-04-26T05:30:26;6.70;99.90
1107;DHT22;540;49.448;8.612;2023-04-26T05:32:53;6.70;99.90
1107;DHT22;540;49.448;8.612;2023-04-26T05:35:22;6.70;99.90
1107;DHT22;540;49.448;8.612;2023-04-26T05:37:50;6.80;99.90
1107;DHT22;540;49.448;8.612;2023-04-26T05:40:18;6.60;99.90
1107;DHT22;540;49.448;8.612;2023-04-26T05:42:47;6.60;99.90
1107;DHT22;540;49.448;8.612;2023-04-26T05:45:15;6.80;99.90
1107;DHT22;540;49.448;8.612;2023-04-26T05:47:43;6.80;99.90
1107;DHT22;540;49.448;8.612;2023-04-26T05:50:13;6.80;99.90
1107;DHT22;540;49.448;8.612;2023-04-26T05:52:40;6.70;99.90
1107;DHT22;540;49.448;8.612;2023-04-26T05:55:09;6.90;99.90
1107;DHT22;540;49.448;8.612;2023-04-26T05:57:36;6.10;99.90
1107;DHT22;540;49.448;8.612;2023-04-26T06:00:07;6.80;99.90
1107;DHT22;540;49.448;8.612;2023-04-26T06:02:37;6.90;99.90
1107;DHT22;540;49.448;8.612;2023-04-26T06:05:06;6.70;99.90
1107;DHT22;540;49.448;8.612;2023-04-26T06:07:35;6.70;99.90
1107;DHT22;540;49.448;8.612;2023-04-26T06:10:04;6.90;99.90
1107;DHT22;540;49.448;8.612;2023-04-26T06:12:32;6.70;99.90
1107;DHT22;540;49.448;8.612;2023-04-26T06:14:59;7.30;99.90
1107;DHT22;540;49.448;8.612;2023-04-26T06:17:29;7.20;98.90
1107;DHT22;540;49.448;8.612;2023-04-26T06:19:57;7.10;98.20
1107;DHT22;540;49.448;8.612;2023-04-26T06:22:24;7.40;97.70
1107;DHT22;540;49.448;8.612;2023-04-26T06:24:52;7.50;97.40
1107;DHT22;540;49.448;8.612;2023-04-26T06:27:20;7.70;96.50
1107;DHT22;540;49.448;8.612;2023-04-26T06:29:48;7.80;95.60
1107;DHT22;540;49.448;8.612;2023-04-26T06:32:16;8.00;95.10
1107;DHT22;540;49.448;8.612;2023-04-26T06:34:45;8.50;93.40
1107;DHT22;540;49.448;8.612;2023-04-26T06:37:12;9.00;92.50
1107;DHT22;540;49.448;8.612;2023-04-26T06:39:40;11.30;80.70
1107;DHT22;540;49.448;8.612;2023-04-26T06:42:08;13.40;65.80
1107;DHT22;540;49.448;8.612;2023-04-26T06:44:37;15.60;56.70
1107;DHT22;540;49.448;8.612;2023-04-26T06:47:04;16.20;53.10
1107;DHT22;540;49.448;8.612;2023-04-26T06:49:35;17.10;51.60
1107;DHT22;540;49.448;8.612;2023-04-26T06:52:04;17.00;50.50
1107;DHT22;540;49.448;8.612;2023-04-26T06:54:35;16.60;50.90
1107;DHT22;540;49.448;8.612;2023-04-26T06:57:15;16.60;51.70
1107;DHT22;540;49.448;8.612;2023-04-26T06:59:43;17.50;50.00
1107;DHT22;540;49.448;8.612;2023-04-26T07:02:11;17.30;48.30
1107;DHT22;540;49.448;8.612;2023-04-26T07:04:41;19.10;46.80
1107;DHT22;540;49.448;8.612;2023-04-26T07:07:11;19.70;44.50
1107;DHT22;540;49.448;8.612;2023-04-26T07:09:40;20.00;42.70
1107;DHT22;540;49.448;8.612;2023-04-26T07:12:10;20.30;42.10
1107;DHT22;540;49.448;8.612;2023-04-26T07:14:38;20.50;40.90
1107;DHT22;540;49.448;8.612;2023-04-26T07:17:06;21.00;39.90
1107;DHT22;540;49.448;8.612;2023-04-26T07:19:35;21.20;39.20
1107;DHT22;540;49.448;8.612;2023-04-26T07:22:02;21.10;38.60
1107;DHT22;540;49.448;8.612;2023-04-26T07:24:32;21.80;38.60
1107;DHT22;540;49.448;8.612;2023-04-26T07:27:00;22.00;37.00
1107;DHT22;540;49.448;8.612;2023-04-26T07:29:28;22.00;36.50
1107;DHT22;540;49.448;8.612;2023-04-26T07:31:56;22.40;35.40
1107;DHT22;540;49.448;8.612;2023-04-26T07:34:24;22.20;35.90
1107;DHT22;540;49.448;8.612;2023-04-26T07:36:52;22.30;35.30
1107;DHT22;540;49.448;8.612;2023-04-26T07:39:20;22.00;36.00
1107;DHT22;540;49.448;8.612;2023-04-26T07:41:49;22.00;37.00
1107;DHT22;540;49.448;8.612;2023-04-26T07:44:17;21.80;36.10
1107;DHT22;540;49.448;8.612;2023-04-26T07:46:44;20.90;37.40
1107;DHT22;540;49.448;8.612;2023-04-26T07:49:12;20.20;38.70
1107;DHT22;540;49.448;8.612;2023-04-26T07:51:42;21.00;38.10
1107;DHT22;540;49.448;8.612;2023-04-26T07:54:10;21.70;36.80
1107;DHT22;540;49.448;8.612;2023-04-26T07:56:38;22.10;36.20
1107;DHT22;540;49.448;8.612;2023-04-26T07:59:07;22.70;35.00
1107;DHT22;540;49.448;8.612;2023-04-26T08:01:36;23.10;34.40
1107;DHT22;540;49.448;8.612;2023-04-26T08:04:06;23.40;32.70
1107;DHT22;540;49.448;8.612;2023-04-26T08:06:37;23.70;32.00
1107;DHT22;540;49.448;8.612;2023-04-26T08:09:11;22.90;32.20
1107;DHT22;540;49.448;8.612;2023-04-26T08:11:41;22.30;33.60
1107;DHT22;540;49.448;8.612;2023-04-26T08:14:12;22.70;32.40
1107;DHT22;540;49.448;8.612;2023-04-26T08:16:42;23.30;31.00
1107;DHT22;540;49.448;8.612;2023-04-26T08:19:12;24.20;29.50
1107;DHT22;540;49.448;8.612;2023-04-26T08:21:42;24.10;28.80
1107;DHT22;540;49.448;8.612;2023-04-26T08:24:12;24.40;28.00
1107;DHT22;540;49.448;8.612;2023-04-26T08:29:14;24.00;27.90
1107;DHT22;540;49.448;8.612;2023-04-26T08:31:45;23.90;28.30
1107;DHT22;540;49.448;8.612;2023-04-26T08:34:15;23.40;28.80
1107;DHT22;540;49.448;8.612;2023-04-26T08:36:45;22.70;29.10
1107;DHT22;540;49.448;8.612;2023-04-26T08:39:15;22.60;28.60
1107;DHT22;540;49.448;8.612;2023-04-26T08:41:49;22.40;28.90
1107;DHT22;540;49.448;8.612;2023-04-26T08:44:24;21.90;28.60
1107;DHT22;540;49.448;8.612;2023-04-26T08:47:04;21.90;28.90
1107;DHT22;540;49.448;8.612;2023-04-26T08:49:39;23.00;27.20
1107;DHT22;540;49.448;8.612;2023-04-26T08:52:10;23.50;27.10
1107;DHT22;540;49.448;8.612;2023-04-26T08:54:40;24.00;25.50
1107;DHT22;540;49.448;8.612;2023-04-26T08:57:10;24.50;25.00
1107;DHT22;540;49.448;8.612;2023-04-26T08:59:41;24.30;24.90
1107;DHT22;540;49.448;8.612;2023-04-26T09:02:16;24.50;25.70
1107;DHT22;540;49.448;8.612;2023-04-26T09:04:45;24.80;25.00
1107;DHT22;540;49.448;8.612;2023-04-26T09:07:18;24.60;24.20
1107;DHT22;540;49.448;8.612;2023-04-26T09:09:48;24.50;24.10
1107;DHT22;540;49.448;8.612;2023-04-26T09:12:17;24.10;24.40
1107;DHT22;540;49.448;8.612;2023-04-26T09:14:48;24.00;24.30
1107;DHT22;540;49.448;8.612;2023-04-26T09:17:26;24.10;24.50
1107;DHT22;540;49.448;8.612;2023-04-26T09:19:54;24.20;24.10
1107;DHT22;540;49.448;8.612;2023-04-26T09:22:31;23.10;24.50
1107;DHT22;540;49.448;8.612;2023-04-26T09:25:00;21.40;26.00
1107;DHT22;540;49.448;8.612;2023-04-26T09:27:33;21.20;27.10
1107;DHT22;540;49.448;8.612;2023-04-26T09:30:05;21.90;27.30
1107;DHT22;540;49.448;8.612;2023-04-26T09:32:46;22.20;26.90
1107;DHT22;540;49.448;8.612;2023-04-26T09:35:30;21.60;26.90
1107;DHT22;540;49.448;8.612;2023-04-26T09:37:59;21.30;28.10
1107;DHT22;540;49.448;8.612;2023-04-26T09:40:36;21.40;27.90
1107;DHT22;540;49.448;8.612;2023-04-26T09:43:06;21.20;28.40
1107;DHT22;540;49.448;8.612;2023-04-26T09:45:45;21.10;28.80
1107;DHT22;540;49.448;8.612;2023-04-26T09:48:16;20.50;29.00
1107;DHT22;540;49.448;8.612;2023-04-26T09:50:45;20.40;29.30
1107;DHT22;540;49.448;8.612;2023-04-26T09:53:24;20.50;29.70
1107;DHT22;540;49.448;8.612;2023-04-26T09:55:53;20.50;29.60
1107;DHT22;540;49.448;8.612;2023-04-26T09:58:21;20.40;29.50
1107;DHT22;540;49.448;8.612;2023-04-26T10:00:51;18.90;29.20
1107;DHT22;540;49.448;8.612;2023-04-26T10:03:22;18.50;30.70
1107;DHT22;540;49.448;8.612;2023-04-26T10:05:51;18.90;31.70
1107;DHT22;540;49.448;8.612;2023-04-26T10:08:19;19.00;32.00
1107;DHT22;540;49.448;8.612;2023-04-26T10:10:47;19.20;32.20
1107;DHT22;540;49.448;8.612;2023-04-26T10:13:16;19.00;31.40
1107;DHT22;540;49.448;8.612;2023-04-26T10:15:45;19.10;31.20
1107;DHT22;540;49.448;8.612;2023-04-26T10:18:15;18.70;31.00
1107;DHT22;540;49.448;8.612;2023-04-26T10:20:45;18.50;31.10
1107;DHT22;540;49.448;8.612;2023-04-26T10:23:18;18.40;31.00
1107;DHT22;540;49.448;8.612;2023-04-26T10:25:47;18.30;32.30
1107;DHT22;540;49.448;8.612;2023-04-26T10:28:16;18.60;31.40
1107;DHT22;540;49.448;8.612;2023-04-26T10:30:54;18.70;30.80
1107;DHT22;540;49.448;8.612;2023-04-26T10:33:24;19.10;30.10
1107;DHT22;540;49.448;8.612;2023-04-26T10:36:07;19.00;31.10
1107;DHT22;540;49.448;8.612;2023-04-26T10:38:37;19.30;30.30
1107;DHT22;540;49.448;8.612;2023-04-26T10:41:26;19.00;30.20
1107;DHT22;540;49.448;8.612;2023-04-26T10:43:54;18.70;31.00
1107;DHT22;540;49.448;8.612;2023-04-26T10:46:35;18.30;32.00
1107;DHT22;540;49.448;8.612;2023-04-26T10:49:15;17.80;32.30
1107;DHT22;540;49.448;8.612;2023-04-26T10:52:08;17.50;33.90
1107;DHT22;540;49.448;8.612;2023-04-26T10:54:56;17.70;34.50
1107;DHT22;540;49.448;8.612;2023-04-26T10:57:45;17.30;35.00
1107;DHT22;540;49.448;8.612;2023-04-26T11:00:30;16.20;35.00
1107;DHT22;540;49.448;8.612;2023-04-26T11:03:02;16.40;37.10
1107;DHT22;540;49.448;8.612;2023-04-26T11:08:23;17.40;35.50
1107;DHT22;540;49.448;8.612;2023-04-26T11:10:57;18.10;35.00
1107;DHT22;540;49.448;8.612;2023-04-26T11:13:25;18.70;33.00
1107;DHT22;540;49.448;8.612;2023-04-26T11:15:53;19.20;32.30
1107;DHT22;540;49.448;8.612;2023-04-26T11:18:26;19.70;31.10
1107;DHT22;540;49.448;8.612;2023-04-26T11:20:57;20.00;31.40
1107;DHT22;540;49.448;8.612;2023-04-26T11:23:28;19.60;30.00
1107;DHT22;540;49.448;8.612;2023-04-26T11:25:56;20.20;30.50
1107;DHT22;540;49.448;8.612;2023-04-26T11:28:24;20.30;30.20
1107;DHT22;540;49.448;8.612;2023-04-26T11:30:52;20.20;30.00
1107;DHT22;540;49.448;8.612;2023-04-26T11:33:21;20.30;30.40
1107;DHT22;540;49.448;8.612;2023-04-26T11:35:50;20.20;29.90
1107;DHT22;540;49.448;8.612;2023-04-26T11:38:22;18.70;30.00
1107;DHT22;540;49.448;8.612;2023-04-26T11:40:55;18.40;31.80
1107;DHT22;540;49.448;8.612;2023-04-26T11:43:33;18.30;31.90
1107;DHT22;540;49.448;8.612;2023-04-26T11:46:02;18.80;32.10
1107;DHT22;540;49.448;8.612;2023-04-26T11:48:31;18.20;32.00
1107;DHT22;540;49.448;8.612;2023-04-26T11:51:02;18.10;33.70
1107;DHT22;540;49.448;8.612;2023-04-26T11:53:38;18.80;32.70
1107;DHT22;540;49.448;8.612;2023-04-26T11:56:13;18.80;31.00
1107;DHT22;540;49.448;8.612;2023-04-26T11:58:46;18.60;30.60
1107;DHT22;540;49.448;8.612;2023-04-26T12:01:19;18.10;31.20
1107;DHT22;540;49.448;8.612;2023-04-26T12:03:50;17.60;32.60
1107;DHT22;540;49.448;8.612;2023-04-26T12:06:18;17.60;33.50
1107;DHT22;540;49.448;8.612;2023-04-26T12:08:51;18.00;33.10
1107;DHT22;540;49.448;8.612;2023-04-26T12:11:19;17.90;32.10
1107;DHT22;540;49.448;8.612;2023-04-26T12:13:47;17.80;31.70
1107;DHT22;540;49.448;8.612;2023-04-26T12:16:15;17.20;32.30
1107;DHT22;540;49.448;8.612;2023-04-26T12:18:49;17.20;33.10
1107;DHT22;540;49.448;8.612;2023-04-26T12:21:18;17.50;34.00
1107;DHT22;540;49.448;8.612;2023-04-26T12:23:46;17.80;33.60
1107;DHT22;540;49.448;8.612;2023-04-26T12:26:16;17.60;32.70
1107;DHT22;540;49.448;8.612;2023-04-26T12:28:45;18.40;32.90
1107;DHT22;540;49.448;8.612;2023-04-26T12:31:13;18.70;30.80
1107;DHT22;540;49.448;8.612;2023-04-26T12:33:41;19.00;30.60
1107;DHT22;540;49.448;8.612;2023-04-26T12:36:10;19.50;31.20
1107;DHT22;540;49.448;8.612;2023-04-26T12:38:38;19.90;30.70
1107;DHT22;540;49.448;8.612;2023-04-26T12:41:06;19.50;30.00
1107;DHT22;540;49.448;8.612;2023-04-26T12:43:35;20.00;29.50
1107;DHT22;540;49.448;8.612;2023-04-26T12:46:03;19.80;29.20
1107;DHT22;540;49.448;8.612;2023-04-26T12:48:31;20.00;29.40
1107;DHT22;540;49.448;8.612;2023-04-26T12:50:59;19.90;29.10
1107;DHT22;540;49.448;8.612;2023-04-26T12:53:27;19.40;28.80
1107;DHT22;540;49.448;8.612;2023-04-26T12:55:54;19.40;29.70
1107;DHT22;540;49.448;8.612;2023-04-26T12:58:22;19.30;28.90
1107;DHT22;540;49.448;8.612;2023-04-26T13:00:52;19.50;28.80
1107;DHT22;540;49.448;8.612;2023-04-26T13:03:20;19.50;27.90
1107;DHT22;540;49.448;8.612;2023-04-26T13:05:48;19.70;28.00
1107;DHT22;540;49.448;8.612;2023-04-26T13:08:16;19.10;27.90
1107;DHT22;540;49.448;8.612;2023-04-26T13:10:44;19.00;28.70
1107;DHT22;540;49.448;8.612;2023-04-26T13:13:11;18.60;29.70
1107;DHT22;540;49.448;8.612;2023-04-26T13:15:39;18.70;30.20
1107;DHT22;540;49.448;8.612;2023-04-26T13:18:08;18.50;30.30
1107;DHT22;540;49.448;8.612;2023-04-26T13:20:36;18.70;30.20
1107;DHT22;540;49.448;8.612;2023-04-26T13:23:04;18.90;30.20
1107;DHT22;540;49.448;8.612;2023-04-26T13:25:32;18.90;29.50
1107;DHT22;540;49.448;8.612;2023-04-26T13:28:00;18.90;29.40
1107;DHT22;540;49.448;8.612;2023-04-26T13:30:28;19.00;29.00
1107;DHT22;540;49.448;8.612;2023-04-26T13:32:56;18.90;29.50
1107;DHT22;540;49.448;8.612;2023-04-26T13:35:27;18.70;30.10
1107;DHT22;540;49.448;8.612;2023-04-26T13:37:55;18.90;30.10
1107;DHT22;540;49.448;8.612;2023-04-26T13:40:23;18.40;30.20
1107;DHT22;540;49.448;8.612;2023-04-26T13:42:50;18.40;31.10
1107;DHT22;540;49.448;8.612;2023-04-26T13:45:18;18.60;31.80
1107;DHT22;540;49.448;8.612;2023-04-26T13:47:46;18.40;32.10
1107;DHT22;540;49.448;8.612;2023-04-26T13:50:14;18.40;32.10
1107;DHT22;540;49.448;8.612;2023-04-26T13:52:43;18.10;31.80
1107;DHT22;540;49.448;8.612;2023-04-26T13:55:11;18.00;32.10
1107;DHT22;540;49.448;8.612;2023-04-26T13:57:39;17.90;32.50
1107;DHT22;540;49.448;8.612;2023-04-26T14:00:08;17.80;31.20
1107;DHT22;540;49.448;8.612;2023-04-26T14:02:37;18.00;30.80
1107;DHT22;540;49.448;8.612;2023-04-26T14:05:06;17.80;30.00
1107;DHT22;540;49.448;8.612;2023-04-26T14:07:34;17.90;29.70
1107;DHT22;540;49.448;8.612;2023-04-26T14:10:04;18.20;30.40
1107;DHT22;540;49.448;8.612;2023-04-26T14:12:33;18.10;29.10
1107;DHT22;540;49.448;8.612;2023-04-26T14:15:01;18.00;29.50
1107;DHT22;540;49.448;8.612;2023-04-26T14:17:31;18.20;30.40
1107;DHT22;540;49.448;8.612;2023-04-26T14:19:59;18.80;31.00
1107;DHT22;540;49.448;8.612;2023-04-26T14:22:26;18.70;30.00
1107;DHT22;540;49.448;8.612;2023-04-26T14:24:54;18.20;30.20
1107;DHT22;540;49.448;8.612;2023-04-26T14:27:24;18.60;31.90
1107;DHT22;540;49.448;8.612;2023-04-26T14:29:52;18.70;31.80
1107;DHT22;540;49.448;8.612;2023-04-26T14:32:20;19.00;31.30
1107;DHT22;540;49.448;8.612;2023-04-26T14:34:48;18.80;30.30
1107;DHT22;540;49.448;8.612;2023-04-26T14:37:15;18.40;31.00
1107;DHT22;540;49.448;8.612;2023-04-26T14:39:47;17.70;30.70
1107;DHT22;540;49.448;8.612;2023-04-26T14:42:15;18.30;32.00
1107;DHT22;540;49.448;8.612;2023-04-26T14:44:45;18.10;32.60
1107;DHT22;540;49.448;8.612;2023-04-26T14:47:13;17.80;32.60
1107;DHT22;540;49.448;8.612;2023-04-26T14:49:41;18.10;33.10
1107;DHT22;540;49.448;8.612;2023-04-26T14:52:08;17.70;32.60
1107;DHT22;540;49.448;8.612;2023-04-26T14:54:37;18.10;32.10
1107;DHT22;540;49.448;8.612;2023-04-26T14:57:04;18.10;32.50
1107;DHT22;540;49.448;8.612;2023-04-26T14:59:32;17.60;32.20
1107;DHT22;540;49.448;8.612;2023-04-26T15:02:02;17.50;32.80
1107;DHT22;540;49.448;8.612;2023-04-26T15:04:30;17.10;34.00
1107;DHT22;540;49.448;8.612;2023-04-26T15:06:58;16.70;34.00
1107;DHT22;540;49.448;8.612;2023-04-26T15:09:26;16.70;35.80
1107;DHT22;540;49.448;8.612;2023-04-26T15:11:56;16.50;35.10
1107;DHT22;540;49.448;8.612;2023-04-26T15:14:24;16.80;35.40
1107;DHT22;540;49.448;8.612;2023-04-26T15:16:52;16.60;36.20
1107;DHT22;540;49.448;8.612;2023-04-26T15:19:22;16.30;36.10
1107;DHT22;540;49.448;8.612;2023-04-26T15:21:49;16.60;37.20
1107;DHT22;540;49.448;8.612;2023-04-26T15:24:17;16.60;37.30
1107;DHT22;540;49.448;8.612;2023-04-26T15:26:45;17.00;37.00
1107;DHT22;540;49.448;8.612;2023-04-26T15:29:13;16.60;36.40
1107;DHT22;540;49.448;8.612;2023-04-26T15:31:41;16.40;36.60
1107;DHT22;540;49.448;8.612;2023-04-26T15:34:09;16.40;36.20
1107;DHT22;540;49.448;8.612;2023-04-26T15:36:38;16.30;36.60
1107;DHT22;540;49.448;8.612;2023-04-26T15:39:06;16.20;36.70
1107;DHT22;540;49.448;8.612;2023-04-26T15:41:33;15.70;37.50
1107;DHT22;540;49.448;8.612;2023-04-26T15:44:02;15.50;38.10
1107;DHT22;540;49.448;8.612;2023-04-26T15:46:29;15.60;38.30
1107;DHT22;540;49.448;8.612;2023-04-26T15:48:57;15.20;37.80
1107;DHT22;540;49.448;8.612;2023-04-26T15:51:25;15.50;38.10
1107;DHT22;540;49.448;8.612;2023-04-26T15:53:54;15.50;38.20
1107;DHT22;540;49.448;8.612;2023-04-26T15:56:22;15.60;38.70
1107;DHT22;540;49.448;8.612;2023-04-26T15:58:51;15.70;39.20
1107;DHT22;540;49.448;8.612;2023-04-26T16:01:19;15.90;39.70
1107;DHT22;540;49.448;8.612;2023-04-26T16:03:47;15.90;40.00
1107;DHT22;540;49.448;8.612;2023-04-26T16:06:16;16.10;39.70
1107;DHT22;540;49.448;8.612;2023-04-26T16:08:44;15.90;37.80
1107;DHT22;540;49.448;8.612;2023-04-26T16:11:13;16.00;38.00
1107;DHT22;540;49.448;8.612;2023-04-26T16:13:41;15.80;37.40
1107;DHT22;540;49.448;8.612;2023-04-26T16:16:10;15.80;37.10
1107;DHT22;540;49.448;8.612;2023-04-26T16:18:38;15.70;37.50
1107;DHT22;540;49.448;8.612;2023-04-26T16:21:06;15.90;37.30
1107;DHT22;540;49.448;8.612;2023-04-26T16:23:35;15.60;37.60
1107;DHT22;540;49.448;8.612;2023-04-26T16:26:03;15.40;37.90
1107;DHT22;540;49.448;8.612;2023-04-26T16:28:33;15.20;39.00
1107;DHT22;540;49.448;8.612;2023-04-26T16:31:00;15.40;39.50
1107;DHT22;540;49.448;8.612;2023-04-26T16:33:28;15.50;39.10
1107;DHT22;540;49.448;8.612;2023-04-26T16:35:56;15.50;38.80
1107;DHT22;540;49.448;8.612;2023-04-26T16:38:24;15.60;39.10
1107;DHT22;540;49.448;8.612;2023-04-26T16:40:52;15.70;39.60
1107;DHT22;540;49.448;8.612;2023-04-26T16:43:23;15.50;39.80